sensor_id;sensor_type;location;lat;lon;timestamp;P1;durP1;ratioP1;P2;durP2;ratioP2
7444;SDS011;3764;48.126;11.594;2023-08-17T00:01:39;11.03;;;9.80;;
7444;SDS011;3764;48.126;11.594;2023-08-17T00:04:06;10.33;;;9.27;;
7444;SDS011;3764;48.126;11.594;2023-08-17T00:06:34;11.40;;;9.90;;
7444;SDS011;3764;48.126;11.594;2023-08-17T00:09:01;10.30;;;9.10;;
7444;SDS011;3764;48.126;11.594;2023-08-17T00:11:30;10.37;;;9.30;;
7444;SDS011;3764;48.126;11.594;2023-08-17T00:13:57;9.80;;;8.80;;
7444;SDS011;3764;48.126;11.594;2023-08-17T00:16:24;11.03;;;9.87;;
7444;SDS011;3764;48.126;11.594;2023-08-17T00:18:51;13.20;;;9.50;;
7444;SDS011;3764;48.126;11.594;2023-08-17T00:21:18;9.60;;;8.70;;
7444;SDS011;3764;48.126;11.594;2023-08-17T00:23:46;13.53;;;9.13;;
7444;SDS011;3764;48.126;11.594;2023-08-17T00:26:13;9.30;;;7.97;;
7444;SDS011;3764;48.126;11.594;2023-08-17T00:28:41;12.10;;;8.80;;
7444;SDS011;3764;48.126;11.594;2023-08-17T00:31:09;10.23;;;9.20;;
7444;SDS011;3764;48.126;11.594;2023-08-17T00:33:36;12.40;;;9.83;;
7444;SDS011;3764;48.126;11.594;2023-08-17T00:36:03;11.30;;;9.60;;
7444;SDS011;3764;48.126;11.594;2023-08-17T00:38:31;11.70;;;9.37;;
7444;SDS011;3764;48.126;11.594;2023-08-17T00:40:58;9.33;;;8.33;;
7444;SDS011;3764;48.126;11.594;2023-08-17T00:43:25;10.77;;;9.67;;
7444;SDS011;3764;48.126;11.594;2023-08-17T00:45:53;13.00;;;9.67;;
7444;SDS011;3764;48.126;11.594;2023-08-17T00:48:20;10.33;;;9.33;;
7444;SDS011;3764;48.126;11.594;2023-08-17T00:50:48;9.53;;;8.63;;
7444;SDS011;3764;48.126;11.594;2023-08-17T00:53:16;10.07;;;9.17;;
7444;SDS011;3764;48.126;11.594;2023-08-17T00:55:44;11.30;;;8.67;;
7444;SDS011;3764;48.126;11.594;2023-08-17T00:58:12;10.10;;;9.20;;
7444;SDS011;3764;48.126;11.594;2023-08-17T01:00:40;11.57;;;9.40;;
7444;SDS011;3764;48.126;11.594;2023-08-17T01:03:08;13.03;;;9.10;;
7444;SDS011;3764;48.126;11.594;2023-08-17T01:05:36;11.63;;;8.90;;
7444;SDS011;3764;48.126;11.594;2023-08-17T01:08:03;10.63;;;9.23;;
7444;SDS011;3764;48.126;11.594;2023-08-17T01:10:31;10.87;;;9.13;;
7444;SDS011;3764;48.126;11.594;2023-08-17T01:13:09;10.77;;;9.00;;
7444;SDS011;3764;48.126;11.594;2023-08-17T01:15:43;12.43;;;9.13;;
7444;SDS011;3764;48.126;11.594;2023-08-17T01:18:17;10.30;;;9.30;;
7444;SDS011;3764;48.126;11.594;2023-08-17T01:20:48;10.93;;;9.33;;
7444;SDS011;3764;48.126;11.594;2023-08-17T01:23:17;9.90;;;9.00;;
7444;SDS011;3764;48.126;11.594;2023-08-17T01:25:44;9.83;;;8.93;;
7444;SDS011;3764;48.126;11.594;2023-08-17T01:28:11;14.90;;;8.60;;
7444;SDS011;3764;48.126;11.594;2023-08-17T01:30:39;9.20;;;8.30;;
7444;SDS011;3764;48.126;11.594;2023-08-17T01:33:13;9.30;;;8.40;;
7444;SDS011;3764;48.126;11.594;2023-08-17T01:35:48;8.77;;;8.00;;
7444;SDS011;3764;48.126;11.594;2023-08-17T01:38:26;9.60;;;8.60;;
7444;SDS011;3764;48.126;11.594;2023-08-17T01:40:56;10.00;;;9.10;;
7444;SDS011;3764;48.126;11.594;2023-08-17T01:43:24;10.10;;;8.40;;
7444;SDS011;3764;48.126;11.594;2023-08-17T01:45:53;10.20;;;9.10;;
7444;SDS011;3764;48.126;11.594;2023-08-17T01:48:21;10.03;;;9.10;;
7444;SDS011;3764;48.126;11.594;2023-08-17T01:50:48;10.87;;;9.77;;
7444;SDS011;3764;48.126;11.594;2023-08-17T01:53:15;12.73;;;10.23;;
7444;SDS011;3764;48.126;11.594;2023-08-17T01:55:43;13.20;;;9.10;;
7444;SDS011;3764;48.126;11.594;2023-08-17T01:58:10;9.80;;;8.80;;
7444;SDS011;3764;48.126;11.594;2023-08-17T02:00:37;10.40;;;9.30;;
7444;SDS011;3764;48.126;11.594;2023-08-17T02:03:04;11.60;;;9.37;;
7444;SDS011;3764;48.126;11.594;2023-08-17T02:05:31;9.17;;;8.17;;
7444;SDS011;3764;48.126;11.594;2023-08-17T02:07:58;11.20;;;8.67;;
7444;SDS011;3764;48.126;11.594;2023-08-17T02:10:25;10.10;;;9.20;;
7444;SDS011;3764;48.126;11.594;2023-08-17T02:12:54;9.93;;;8.93;;
7444;SDS011;3764;48.126;11.594;2023-08-17T02:15:21;11.70;;;9.27;;
7444;SDS011;3764;48.126;11.594;2023-08-17T02:17:48;10.37;;;9.37;;
7444;SDS011;3764;48.126;11.594;2023-08-17T02:20:15;11.13;;;9.83;;
7444;SDS011;3764;48.126;11.594;2023-08-17T02:22:42;10.90;;;9.80;;
7444;SDS011;3764;48.126;11.594;2023-08-17T02:25:09;9.77;;;8.77;;
7444;SDS011;3764;48.126;11.594;2023-08-17T02:27:36;13.10;;;8.30;;
7444;SDS011;3764;48.126;11.594;2023-08-17T02:30:05;9.87;;;8.93;;
7444;SDS011;3764;48.126;11.594;2023-08-17T02:32:33;8.90;;;8.00;;
7444;SDS011;3764;48.126;11.594;2023-08-17T02:35:00;9.90;;;9.00;;
7444;SDS011;3764;48.126;11.594;2023-08-17T02:37:27;8.90;;;8.10;;
7444;SDS011;3764;48.126;11.594;2023-08-17T02:39:54;11.40;;;8.57;;
7444;SDS011;3764;48.126;11.594;2023-08-17T02:42:21;10.67;;;9.67;;
7444;SDS011;3764;48.126;11.594;2023-08-17T02:44:48;10.33;;;9.20;;
7444;SDS011;3764;48.126;11.594;2023-08-17T02:47:17;10.30;;;9.30;;
7444;SDS011;3764;48.126;11.594;2023-08-17T02:49:44;10.47;;;8.83;;
7444;SDS011;3764;48.126;11.594;2023-08-17T02:52:12;12.63;;;9.50;;
7444;SDS011;3764;48.126;11.594;2023-08-17T02:54:39;11.97;;;9.77;;
7444;SDS011;3764;48.126;11.594;2023-08-17T02:57:06;9.73;;;8.83;;
7444;SDS011;3764;48.126;11.594;2023-08-17T02:59:34;10.07;;;9.13;;
7444;SDS011;3764;48.126;11.594;2023-08-17T03:02:01;13.40;;;10.00;;
7444;SDS011;3764;48.126;11.594;2023-08-17T03:04:29;10.20;;;9.20;;
7444;SDS011;3764;48.126;11.594;2023-08-17T03:06:56;10.60;;;9.50;;
7444;SDS011;3764;48.126;11.594;2023-08-17T03:09:23;16.00;;;10.10;;
7444;SDS011;3764;48.126;11.594;2023-08-17T03:11:51;10.13;;;9.17;;
7444;SDS011;3764;48.126;11.594;2023-08-17T03:14:18;10.90;;;9.90;;
7444;SDS011;3764;48.126;11.594;2023-08-17T03:16:45;10.00;;;9.10;;
7444;SDS011;3764;48.126;11.594;2023-08-17T03:19:12;10.30;;;9.20;;
7444;SDS011;3764;48.126;11.594;2023-08-17T03:21:40;10.37;;;9.37;;
7444;SDS011;3764;48.126;11.594;2023-08-17T03:24:07;10.10;;;9.10;;
7444;SDS011;3764;48.126;11.594;2023-08-17T03:26:34;9.40;;;8.43;;
7444;SDS011;3764;48.126;11.594;2023-08-17T03:29:02;9.07;;;8.20;;
7444;SDS011;3764;48.126;11.594;2023-08-17T03:31:29;9.90;;;8.90;;
7444;SDS011;3764;48.126;11.594;2023-08-17T03:33:56;10.00;;;9.00;;
7444;SDS011;3764;48.126;11.594;2023-08-17T03:36:23;9.43;;;8.53;;
7444;SDS011;3764;48.126;11.594;2023-08-17T03:38:51;9.50;;;8.50;;
7444;SDS011;3764;48.126;11.594;2023-08-17T03:41:18;10.00;;;9.00;;
7444;SDS011;3764;48.126;11.594;2023-08-17T03:43:45;10.30;;;8.30;;
7444;SDS011;3764;48.126;11.594;2023-08-17T03:46:13;10.60;;;9.70;;
7444;SDS011;3764;48.126;11.594;2023-08-17T03:48:40;9.17;;;8.27;;
7444;SDS011;3764;48.126;11.594;2023-08-17T03:51:07;9.73;;;8.73;;
7444;SDS011;3764;48.126;11.594;2023-08-17T03:53:34;9.63;;;8.73;;
7444;SDS011;3764;48.126;11.594;2023-08-17T03:56:02;9.27;;;8.37;;
7444;SDS011;3764;48.126;11.594;2023-08-17T03:58:29;11.60;;;8.97;;
7444;SDS011;3764;48.126;11.594;2023-08-17T04:00:59;9.27;;;8.37;;
7444;SDS011;3764;48.126;11.594;2023-08-17T04:03:26;10.20;;;9.20;;
7444;SDS011;3764;48.126;11.594;2023-08-17T04:05:53;10.17;;;9.17;;
7444;SDS011;3764;48.126;11.594;2023-08-17T04:08:21;9.60;;;8.70;;
7444;SDS011;3764;48.126;11.594;2023-08-17T04:10:48;8.90;;;8.00;;
7444;SDS011;3764;48.126;11.594;2023-08-17T04:13:16;9.83;;;8.83;;
7444;SDS011;3764;48.126;11.594;2023-08-17T04:15:43;9.67;;;8.77;;
7444;SDS011;3764;48.126;11.594;2023-08-17T04:18:11;9.50;;;7.93;;
7444;SDS011;3764;48.126;11.594;2023-08-17T04:20:38;10.33;;;9.33;;
7444;SDS011;3764;48.126;11.594;2023-08-17T04:23:05;9.90;;;8.63;;
7444;SDS011;3764;48.126;11.594;2023-08-17T04:25:32;11.93;;;9.40;;
7444;SDS011;3764;48.126;11.594;2023-08-17T04:27:59;12.20;;;8.87;;
7444;SDS011;3764;48.126;11.594;2023-08-17T04:30:27;10.63;;;9.40;;
7444;SDS011;3764;48.126;11.594;2023-08-17T04:32:54;15.20;;;9.20;;
7444;SDS011;3764;48.126;11.594;2023-08-17T04:35:21;9.00;;;8.10;;
7444;SDS011;3764;48.126;11.594;2023-08-17T04:37:49;10.77;;;8.40;;
7444;SDS011;3764;48.126;11.594;2023-08-17T04:40:16;9.57;;;8.70;;
7444;SDS011;3764;48.126;11.594;2023-08-17T04:42:43;10.37;;;9.37;;
7444;SDS011;3764;48.126;11.594;2023-08-17T04:45:10;9.60;;;8.70;;
7444;SDS011;3764;48.126;11.594;2023-08-17T04:47:39;9.70;;;8.80;;
7444;SDS011;3764;48.126;11.594;2023-08-17T04:50:06;9.67;;;8.67;;
7444;SDS011;3764;48.126;11.594;2023-08-17T04:52:34;11.00;;;9.87;;
7444;SDS011;3764;48.126;11.594;2023-08-17T04:55:01;10.27;;;9.30;;
7444;SDS011;3764;48.126;11.594;2023-08-17T04:57:29;9.83;;;8.90;;
7444;SDS011;3764;48.126;11.594;2023-08-17T04:59:56;11.20;;;8.73;;
7444;SDS011;3764;48.126;11.594;2023-08-17T05:02:23;10.00;;;9.00;;
7444;SDS011;3764;48.126;11.594;2023-08-17T05:04:51;10.03;;;9.03;;
7444;SDS011;3764;48.126;11.594;2023-08-17T05:07:18;11.87;;;9.87;;
7444;SDS011;3764;48.126;11.594;2023-08-17T05:09:45;11.50;;;9.13;;
7444;SDS011;3764;48.126;11.594;2023-08-17T05:12:12;9.93;;;8.93;;
7444;SDS011;3764;48.126;11.594;2023-08-17T05:14:39;11.13;;;8.57;;
7444;SDS011;3764;48.126;11.594;2023-08-17T05:17:06;9.60;;;8.63;;
7444;SDS011;3764;48.126;11.594;2023-08-17T05:19:33;12.30;;;9.70;;
7444;SDS011;3764;48.126;11.594;2023-08-17T05:22:02;9.80;;;8.97;;
7444;SDS011;3764;48.126;11.594;2023-08-17T05:24:29;16.07;;;9.00;;
7444;SDS011;3764;48.126;11.594;2023-08-17T05:26:56;10.93;;;9.50;;
7444;SDS011;3764;48.126;11.594;2023-08-17T05:29:23;12.13;;;10.10;;
7444;SDS011;3764;48.126;11.594;2023-08-17T05:31:50;10.67;;;9.70;;
7444;SDS011;3764;48.126;11.594;2023-08-17T05:34:17;10.73;;;9.43;;
7444;SDS011;3764;48.126;11.594;2023-08-17T05:36:44;11.37;;;10.13;;
7444;SDS011;3764;48.126;11.594;2023-08-17T05:39:13;11.13;;;10.03;;
7444;SDS011;3764;48.126;11.594;2023-08-17T05:41:40;10.40;;;9.40;;
7444;SDS011;3764;48.126;11.594;2023-08-17T05:44:07;11.00;;;9.93;;
7444;SDS011;3764;48.126;11.594;2023-08-17T05:46:35;10.53;;;9.53;;
7444;SDS011;3764;48.126;11.594;2023-08-17T05:49:02;10.30;;;9.20;;
7444;SDS011;3764;48.126;11.594;2023-08-17T05:51:30;11.43;;;10.13;;
7444;SDS011;3764;48.126;11.594;2023-08-17T05:53:57;11.43;;;10.17;;
7444;SDS011;3764;48.126;11.594;2023-08-17T05:56:26;10.03;;;8.83;;
7444;SDS011;3764;48.126;11.594;2023-08-17T05:58:53;11.00;;;9.80;;
7444;SDS011;3764;48.126;11.594;2023-08-17T06:01:20;10.50;;;9.43;;
7444;SDS011;3764;48.126;11.594;2023-08-17T06:03:47;10.73;;;9.63;;
7444;SDS011;3764;48.126;11.594;2023-08-17T06:06:14;10.87;;;9.87;;
7444;SDS011;3764;48.126;11.594;2023-08-17T06:08:42;10.33;;;9.43;;
7444;SDS011;3764;48.126;11.594;2023-08-17T06:11:09;11.33;;;10.13;;
7444;SDS011;3764;48.126;11.594;2023-08-17T06:13:37;10.27;;;9.33;;
7444;SDS011;3764;48.126;11.594;2023-08-17T06:16:04;10.67;;;9.63;;
7444;SDS011;3764;48.126;11.594;2023-08-17T06:18:31;11.20;;;10.07;;
7444;SDS011;3764;48.126;11.594;2023-08-17T06:20:59;10.83;;;9.73;;
7444;SDS011;3764;48.126;11.594;2023-08-17T06:23:26;9.20;;;8.30;;
7444;SDS011;3764;48.126;11.594;2023-08-17T06:25:56;11.27;;;8.10;;
7444;SDS011;3764;48.126;11.594;2023-08-17T06:28:23;9.50;;;8.60;;
7444;SDS011;3764;48.126;11.594;2023-08-17T06:30:52;9.87;;;8.57;;
7444;SDS011;3764;48.126;11.594;2023-08-17T06:33:20;9.80;;;8.80;;
7444;SDS011;3764;48.126;11.594;2023-08-17T06:35:47;9.47;;;8.50;;
7444;SDS011;3764;48.126;11.594;2023-08-17T06:38:15;9.53;;;8.63;;
7444;SDS011;3764;48.126;11.594;2023-08-17T06:40:42;9.47;;;8.67;;
7444;SDS011;3764;48.126;11.594;2023-08-17T06:43:10;9.20;;;8.27;;
7444;SDS011;3764;48.126;11.594;2023-08-17T06:45:37;13.30;;;8.60;;
7444;SDS011;3764;48.126;11.594;2023-08-17T06:48:06;10.03;;;8.70;;
7444;SDS011;3764;48.126;11.594;2023-08-17T06:50:33;9.37;;;8.47;;
7444;SDS011;3764;48.126;11.594;2023-08-17T06:53:01;8.90;;;8.10;;
7444;SDS011;3764;48.126;11.594;2023-08-17T06:55:32;10.03;;;9.00;;
7444;SDS011;3764;48.126;11.594;2023-08-17T06:58:00;9.50;;;8.57;;
7444;SDS011;3764;48.126;11.594;2023-08-17T07:00:29;9.13;;;8.20;;
7444;SDS011;3764;48.126;11.594;2023-08-17T07:02:57;9.90;;;8.90;;
7444;SDS011;3764;48.126;11.594;2023-08-17T07:05:26;9.00;;;8.10;;
7444;SDS011;3764;48.126;11.594;2023-08-17T07:07:54;9.00;;;8.23;;
7444;SDS011;3764;48.126;11.594;2023-08-17T07:10:22;9.77;;;8.83;;
7444;SDS011;3764;48.126;11.594;2023-08-17T07:12:50;11.20;;;10.27;;
7444;SDS011;3764;48.126;11.594;2023-08-17T07:15:21;8.67;;;7.87;;
7444;SDS011;3764;48.126;11.594;2023-08-17T07:17:48;9.67;;;8.77;;
7444;SDS011;3764;48.126;11.594;2023-08-17T07:20:16;9.67;;;8.67;;
7444;SDS011;3764;48.126;11.594;2023-08-17T07:22:45;8.80;;;8.00;;
7444;SDS011;3764;48.126;11.594;2023-08-17T07:25:12;8.77;;;7.97;;
7444;SDS011;3764;48.126;11.594;2023-08-17T07:27:40;9.23;;;8.37;;
7444;SDS011;3764;48.126;11.594;2023-08-17T07:30:08;9.07;;;8.27;;
7444;SDS011;3764;48.126;11.594;2023-08-17T07:32:36;9.83;;;8.93;;
7444;SDS011;3764;48.126;11.594;2023-08-17T07:35:04;10.40;;;9.33;;
7444;SDS011;3764;48.126;11.594;2023-08-17T07:37:32;9.67;;;8.77;;
7444;SDS011;3764;48.126;11.594;2023-08-17T07:40:04;8.20;;;7.50;;
7444;SDS011;3764;48.126;11.594;2023-08-17T07:42:32;9.03;;;8.23;;
7444;SDS011;3764;48.126;11.594;2023-08-17T07:44:59;9.70;;;8.80;;
7444;SDS011;3764;48.126;11.594;2023-08-17T07:47:29;9.87;;;8.77;;
7444;SDS011;3764;48.126;11.594;2023-08-17T07:49:57;9.27;;;8.50;;
7444;SDS011;3764;48.126;11.594;2023-08-17T07:52:24;9.73;;;8.83;;
7444;SDS011;3764;48.126;11.594;2023-08-17T07:54:51;9.27;;;8.40;;
7444;SDS011;3764;48.126;11.594;2023-08-17T07:57:20;9.70;;;8.80;;
7444;SDS011;3764;48.126;11.594;2023-08-17T07:59:47;10.20;;;8.00;;
7444;SDS011;3764;48.126;11.594;2023-08-17T08:02:14;8.80;;;8.10;;
7444;SDS011;3764;48.126;11.594;2023-08-17T08:04:42;9.17;;;8.17;;
7444;SDS011;3764;48.126;11.594;2023-08-17T08:07:09;9.10;;;8.30;;
7444;SDS011;3764;48.126;11.594;2023-08-17T08:09:37;12.57;;;8.97;;
7444;SDS011;3764;48.126;11.594;2023-08-17T08:12:04;10.03;;;9.03;;
7444;SDS011;3764;48.126;11.594;2023-08-17T08:14:34;12.73;;;8.87;;
7444;SDS011;3764;48.126;11.594;2023-08-17T08:17:01;8.70;;;8.00;;
7444;SDS011;3764;48.126;11.594;2023-08-17T08:19:28;9.67;;;8.87;;
7444;SDS011;3764;48.126;11.594;2023-08-17T08:21:55;10.03;;;9.03;;
7444;SDS011;3764;48.126;11.594;2023-08-17T08:24:22;11.10;;;8.87;;
7444;SDS011;3764;48.126;11.594;2023-08-17T08:26:49;12.27;;;10.60;;
7444;SDS011;3764;48.126;11.594;2023-08-17T08:29:18;9.50;;;8.70;;
7444;SDS011;3764;48.126;11.594;2023-08-17T08:31:46;11.13;;;9.20;;
7444;SDS011;3764;48.126;11.594;2023-08-17T08:34:13;9.17;;;8.37;;
7444;SDS011;3764;48.126;11.594;2023-08-17T08:36:40;9.70;;;8.70;;
7444;SDS011;3764;48.126;11.594;2023-08-17T08:39:08;8.97;;;8.27;;
7444;SDS011;3764;48.126;11.594;2023-08-17T08:41:36;9.17;;;8.23;;
7444;SDS011;3764;48.126;11.594;2023-08-17T08:44:04;8.73;;;7.93;;
7444;SDS011;3764;48.126;11.594;2023-08-17T08:46:31;8.87;;;8.07;;
7444;SDS011;3764;48.126;11.594;2023-08-17T08:49:04;8.43;;;7.63;;
7444;SDS011;3764;48.126;11.594;2023-08-17T08:51:37;10.83;;;9.30;;
7444;SDS011;3764;48.126;11.594;2023-08-17T08:54:11;9.63;;;8.83;;
7444;SDS011;3764;48.126;11.594;2023-08-17T08:56:41;9.23;;;8.50;;
7444;SDS011;3764;48.126;11.594;2023-08-17T08:59:11;8.93;;;8.20;;
7444;SDS011;3764;48.126;11.594;2023-08-17T09:01:38;9.50;;;8.50;;
7444;SDS011;3764;48.126;11.594;2023-08-17T09:04:07;9.33;;;8.00;;
7444;SDS011;3764;48.126;11.594;2023-08-17T09:06:34;8.90;;;8.10;;
7444;SDS011;3764;48.126;11.594;2023-08-17T09:09:03;8.93;;;8.20;;
7444;SDS011;3764;48.126;11.594;2023-08-17T09:11:32;8.83;;;8.03;;
7444;SDS011;3764;48.126;11.594;2023-08-17T09:13:59;9.87;;;8.97;;
7444;SDS011;3764;48.126;11.594;2023-08-17T09:16:26;8.97;;;8.17;;
7444;SDS011;3764;48.126;11.594;2023-08-17T09:18:54;8.00;;;7.30;;
7444;SDS011;3764;48.126;11.594;2023-08-17T09:21:22;9.10;;;8.33;;
7444;SDS011;3764;48.126;11.594;2023-08-17T09:23:53;8.70;;;8.00;;
7444;SDS011;3764;48.126;11.594;2023-08-17T09:26:21;8.73;;;8.00;;
7444;SDS011;3764;48.126;11.594;2023-08-17T09:28:49;9.40;;;8.50;;
7444;SDS011;3764;48.126;11.594;2023-08-17T09:31:19;9.60;;;8.70;;
7444;SDS011;3764;48.126;11.594;2023-08-17T09:33:48;8.53;;;7.77;;
7444;SDS011;3764;48.126;11.594;2023-08-17T09:36:19;9.40;;;7.80;;
7444;SDS011;3764;48.126;11.594;2023-08-17T09:38:48;8.40;;;7.60;;
7444;SDS011;3764;48.126;11.594;2023-08-17T09:41:17;8.93;;;8.23;;
7444;SDS011;3764;48.126;11.594;2023-08-17T09:43:44;10.30;;;9.20;;
7444;SDS011;3764;48.126;11.594;2023-08-17T09:46:11;7.63;;;7.00;;
7444;SDS011;3764;48.126;11.594;2023-08-17T09:48:39;9.00;;;8.20;;
7444;SDS011;3764;48.126;11.594;2023-08-17T09:51:06;8.27;;;7.57;;
7444;SDS011;3764;48.126;11.594;2023-08-17T09:53:34;12.00;;;9.97;;
7444;SDS011;3764;48.126;11.594;2023-08-17T09:56:05;11.10;;;9.00;;
7444;SDS011;3764;48.126;11.594;2023-08-17T09:58:35;10.13;;;8.40;;
7444;SDS011;3764;48.126;11.594;2023-08-17T10:01:03;8.87;;;8.07;;
7444;SDS011;3764;48.126;11.594;2023-08-17T10:03:32;9.10;;;8.30;;
7444;SDS011;3764;48.126;11.594;2023-08-17T10:06:02;8.67;;;7.60;;
7444;SDS011;3764;48.126;11.594;2023-08-17T10:08:31;7.90;;;7.17;;
7444;SDS011;3764;48.126;11.594;2023-08-17T10:11:02;12.00;;;8.70;;
7444;SDS011;3764;48.126;11.594;2023-08-17T10:13:37;8.40;;;7.60;;
7444;SDS011;3764;48.126;11.594;2023-08-17T10:16:11;9.87;;;6.87;;
7444;SDS011;3764;48.126;11.594;2023-08-17T10:18:49;8.40;;;7.60;;
7444;SDS011;3764;48.126;11.594;2023-08-17T10:21:21;8.77;;;7.97;;
7444;SDS011;3764;48.126;11.594;2023-08-17T10:23:52;10.20;;;7.63;;
7444;SDS011;3764;48.126;11.594;2023-08-17T10:26:21;12.07;;;8.47;;
7444;SDS011;3764;48.126;11.594;2023-08-17T10:28:50;7.80;;;7.20;;
7444;SDS011;3764;48.126;11.594;2023-08-17T10:31:21;6.83;;;6.07;;
7444;SDS011;3764;48.126;11.594;2023-08-17T10:33:51;7.47;;;6.87;;
7444;SDS011;3764;48.126;11.594;2023-08-17T10:37:01;8.67;;;7.30;;
7444;SDS011;3764;48.126;11.594;2023-08-17T10:43:12;7.30;;;6.60;;
7444;SDS011;3764;48.126;11.594;2023-08-17T10:45:39;7.13;;;6.43;;
7444;SDS011;3764;48.126;11.594;2023-08-17T10:48:25;8.10;;;7.50;;
7444;SDS011;3764;48.126;11.594;2023-08-17T10:51:04;7.00;;;6.40;;
7444;SDS011;3764;48.126;11.594;2023-08-17T10:53:35;7.50;;;6.90;;
7444;SDS011;3764;48.126;11.594;2023-08-17T10:56:06;6.97;;;6.23;;
7444;SDS011;3764;48.126;11.594;2023-08-17T10:58:55;7.40;;;6.60;;
7444;SDS011;3764;48.126;11.594;2023-08-17T11:01:32;6.87;;;6.27;;
7444;SDS011;3764;48.126;11.594;2023-08-17T11:04:10;6.50;;;5.90;;
7444;SDS011;3764;48.126;11.594;2023-08-17T11:06:41;6.23;;;5.73;;
7444;SDS011;3764;48.126;11.594;2023-08-17T11:09:10;8.53;;;7.73;;
7444;SDS011;3764;48.126;11.594;2023-08-17T11:11:38;7.20;;;6.60;;
7444;SDS011;3764;48.126;11.594;2023-08-17T11:14:06;9.37;;;6.80;;
7444;SDS011;3764;48.126;11.594;2023-08-17T11:16:35;9.03;;;7.90;;
7444;SDS011;3764;48.126;11.594;2023-08-17T11:19:02;9.17;;;8.27;;
7444;SDS011;3764;48.126;11.594;2023-08-17T11:21:29;8.27;;;7.57;;
7444;SDS011;3764;48.126;11.594;2023-08-17T11:23:58;8.87;;;8.07;;
7444;SDS011;3764;48.126;11.594;2023-08-17T11:26:25;9.17;;;8.37;;
7444;SDS011;3764;48.126;11.594;2023-08-17T11:28:53;8.70;;;8.00;;
7444;SDS011;3764;48.126;11.594;2023-08-17T11:31:21;9.03;;;8.30;;
7444;SDS011;3764;48.126;11.594;2023-08-17T11:33:49;8.50;;;7.70;;
7444;SDS011;3764;48.126;11.594;2023-08-17T11:36:16;8.40;;;7.70;;
7444;SDS011;3764;48.126;11.594;2023-08-17T11:38:43;9.33;;;8.40;;
7444;SDS011;3764;48.126;11.594;2023-08-17T11:41:11;9.67;;;8.73;;
7444;SDS011;3764;48.126;11.594;2023-08-17T11:43:40;8.70;;;7.90;;
7444;SDS011;3764;48.126;11.594;2023-08-17T11:46:07;9.03;;;8.20;;
7444;SDS011;3764;48.126;11.594;2023-08-17T11:48:35;9.00;;;8.20;;
7444;SDS011;3764;48.126;11.594;2023-08-17T11:51:03;10.20;;;9.10;;
7444;SDS011;3764;48.126;11.594;2023-08-17T11:53:34;9.60;;;8.80;;
7444;SDS011;3764;48.126;11.594;2023-08-17T11:56:01;9.20;;;8.40;;
7444;SDS011;3764;48.126;11.594;2023-08-17T11:58:42;9.63;;;8.83;;
7444;SDS011;3764;48.126;11.594;2023-08-17T12:01:10;10.47;;;9.50;;
7444;SDS011;3764;48.126;11.594;2023-08-17T12:03:39;9.70;;;8.90;;
7444;SDS011;3764;48.126;11.594;2023-08-17T12:06:07;9.50;;;8.63;;
7444;SDS011;3764;48.126;11.594;2023-08-17T12:08:34;9.00;;;8.20;;
7444;SDS011;3764;48.126;11.594;2023-08-17T12:11:01;9.10;;;8.30;;
7444;SDS011;3764;48.126;11.594;2023-08-17T12:13:30;9.03;;;8.30;;
7444;SDS011;3764;48.126;11.594;2023-08-17T12:15:58;11.80;;;8.80;;
7444;SDS011;3764;48.126;11.594;2023-08-17T12:18:26;9.27;;;8.47;;
7444;SDS011;3764;48.126;11.594;2023-08-17T12:20:54;8.27;;;7.63;;
7444;SDS011;3764;48.126;11.594;2023-08-17T12:23:22;9.43;;;8.63;;
7444;SDS011;3764;48.126;11.594;2023-08-17T12:25:53;9.40;;;8.50;;
7444;SDS011;3764;48.126;11.594;2023-08-17T12:28:20;9.30;;;8.60;;
7444;SDS011;3764;48.126;11.594;2023-08-17T12:30:55;9.60;;;8.80;;
7444;SDS011;3764;48.126;11.594;2023-08-17T12:33:23;10.33;;;9.43;;
7444;SDS011;3764;48.126;11.594;2023-08-17T12:35:51;10.33;;;9.40;;
7444;SDS011;3764;48.126;11.594;2023-08-17T12:38:23;10.13;;;9.23;;
7444;SDS011;3764;48.126;11.594;2023-08-17T12:40:51;9.73;;;8.73;;
7444;SDS011;3764;48.126;11.594;2023-08-17T12:43:18;10.77;;;9.07;;
7444;SDS011;3764;48.126;11.594;2023-08-17T12:45:45;9.60;;;8.70;;
7444;SDS011;3764;48.126;11.594;2023-08-17T12:48:12;9.43;;;8.63;;
7444;SDS011;3764;48.126;11.594;2023-08-17T12:50:39;9.40;;;8.20;;
7444;SDS011;3764;48.126;11.594;2023-08-17T12:53:08;10.40;;;9.50;;
7444;SDS011;3764;48.126;11.594;2023-08-17T12:55:35;10.37;;;9.20;;
7444;SDS011;3764;48.126;11.594;2023-08-17T12:58:02;8.97;;;8.17;;
7444;SDS011;3764;48.126;11.594;2023-08-17T13:00:30;8.60;;;7.90;;
7444;SDS011;3764;48.126;11.594;2023-08-17T13:02:58;9.63;;;8.83;;
7444;SDS011;3764;48.126;11.594;2023-08-17T13:05:25;10.30;;;8.50;;
7444;SDS011;3764;48.126;11.594;2023-08-17T13:07:52;10.00;;;9.13;;
7444;SDS011;3764;48.126;11.594;2023-08-17T13:10:21;9.90;;;9.10;;
7444;SDS011;3764;48.126;11.594;2023-08-17T13:12:48;8.77;;;8.07;;
7444;SDS011;3764;48.126;11.594;2023-08-17T13:15:19;8.13;;;7.50;;
7444;SDS011;3764;48.126;11.594;2023-08-17T13:17:49;9.00;;;8.30;;
7444;SDS011;3764;48.126;11.594;2023-08-17T13:20:16;9.47;;;8.57;;
7444;SDS011;3764;48.126;11.594;2023-08-17T13:22:43;9.10;;;8.37;;
7444;SDS011;3764;48.126;11.594;2023-08-17T13:25:10;8.17;;;7.57;;
7444;SDS011;3764;48.126;11.594;2023-08-17T13:27:39;9.27;;;8.57;;
7444;SDS011;3764;48.126;11.594;2023-08-17T13:30:06;9.10;;;8.30;;
7444;SDS011;3764;48.126;11.594;2023-08-17T13:32:34;7.83;;;7.13;;
7444;SDS011;3764;48.126;11.594;2023-08-17T13:35:01;10.13;;;9.23;;
7444;SDS011;3764;48.126;11.594;2023-08-17T13:37:29;9.10;;;8.27;;
7444;SDS011;3764;48.126;11.594;2023-08-17T13:39:56;8.60;;;7.80;;
7444;SDS011;3764;48.126;11.594;2023-08-17T13:42:25;9.33;;;8.40;;
7444;SDS011;3764;48.126;11.594;2023-08-17T13:44:53;15.23;;;6.50;;
7444;SDS011;3764;48.126;11.594;2023-08-17T13:47:21;7.73;;;7.00;;
7444;SDS011;3764;48.126;11.594;2023-08-17T13:49:48;8.77;;;7.97;;
7444;SDS011;3764;48.126;11.594;2023-08-17T13:52:15;7.70;;;7.00;;
7444;SDS011;3764;48.126;11.594;2023-08-17T13:54:42;8.40;;;7.57;;
7444;SDS011;3764;48.126;11.594;2023-08-17T13:57:10;8.13;;;7.53;;
7444;SDS011;3764;48.126;11.594;2023-08-17T13:59:37;7.80;;;7.00;;
7444;SDS011;3764;48.126;11.594;2023-08-17T14:02:06;7.90;;;7.20;;
7444;SDS011;3764;48.126;11.594;2023-08-17T14:04:34;8.43;;;7.73;;
7444;SDS011;3764;48.126;11.594;2023-08-17T14:07:01;8.70;;;8.00;;
7444;SDS011;3764;48.126;11.594;2023-08-17T14:09:29;8.83;;;7.90;;
7444;SDS011;3764;48.126;11.594;2023-08-17T14:11:56;8.00;;;7.30;;
7444;SDS011;3764;48.126;11.594;2023-08-17T14:14:24;8.33;;;7.53;;
7444;SDS011;3764;48.126;11.594;2023-08-17T14:16:51;8.10;;;7.40;;
7444;SDS011;3764;48.126;11.594;2023-08-17T14:19:20;7.50;;;6.80;;
7444;SDS011;3764;48.126;11.594;2023-08-17T14:21:47;7.47;;;6.83;;
7444;SDS011;3764;48.126;11.594;2023-08-17T14:24:14;7.80;;;7.10;;
7444;SDS011;3764;48.126;11.594;2023-08-17T14:26:41;8.97;;;8.17;;
7444;SDS011;3764;48.126;11.594;2023-08-17T14:29:09;8.77;;;8.03;;
7444;SDS011;3764;48.126;11.594;2023-08-17T14:31:36;8.53;;;7.73;;
7444;SDS011;3764;48.126;11.594;2023-08-17T14:34:03;9.73;;;8.60;;
7444;SDS011;3764;48.126;11.594;2023-08-17T14:36:32;8.53;;;7.90;;
7444;SDS011;3764;48.126;11.594;2023-08-17T14:38:59;9.63;;;8.73;;
7444;SDS011;3764;48.126;11.594;2023-08-17T14:41:26;9.87;;;9.07;;
7444;SDS011;3764;48.126;11.594;2023-08-17T14:43:57;9.83;;;8.53;;
7444;SDS011;3764;48.126;11.594;2023-08-17T14:46:24;7.90;;;7.10;;
7444;SDS011;3764;48.126;11.594;2023-08-17T14:48:52;8.33;;;7.63;;
7444;SDS011;3764;48.126;11.594;2023-08-17T14:51:19;8.60;;;7.90;;
7444;SDS011;3764;48.126;11.594;2023-08-17T14:53:47;10.23;;;8.70;;
7444;SDS011;3764;48.126;11.594;2023-08-17T14:56:14;9.73;;;8.67;;
7444;SDS011;3764;48.126;11.594;2023-08-17T14:58:41;9.80;;;8.90;;
7444;SDS011;3764;48.126;11.594;2023-08-17T15:01:08;9.80;;;9.00;;
7444;SDS011;3764;48.126;11.594;2023-08-17T15:03:35;8.90;;;8.10;;
7444;SDS011;3764;48.126;11.594;2023-08-17T15:06:05;9.47;;;8.00;;